createdAt,value
2019-05-05T01:02:18.523Z,3.10
2019-05-05T01:04:47.912Z,4.15
2019-05-05T01:07:17.314Z,2.72
2019-05-05T01:09:48.131Z,7.62
2019-05-05T01:12:17.655Z,1.85
2019-05-05T01:14:48.000Z,2.12
2019-05-05T01:17:17.381Z,3.35
2019-05-05T01:20:00.268Z,2.05
2019-05-05T01:22:20.092Z,3.40
2019-05-05T01:24:49.626Z,3.55
2019-05-05T01:27:18.895Z,4.73
2019-05-05T01:29:48.195Z,3.17
2019-05-05T01:32:18.890Z,2.98
2019-05-05T01:34:50.395Z,4.25
2019-05-05T01:39:48.495Z,4.62
2019-05-05T01:42:24.842Z,4.03
2019-05-05T01:44:59.781Z,2.60
2019-05-05T01:47:29.222Z,3.20
2019-05-05T01:49:58.638Z,2.45
2019-05-05T01:52:27.794Z,3.27
2019-05-05T01:54:58.449Z,4.03
2019-05-05T01:57:28.610Z,4.20
2019-05-05T01:59:59.859Z,8.25
2019-05-05T02:02:29.802Z,3.70
2019-05-05T02:05:06.625Z,2.98
2019-05-05T02:07:35.772Z,2.62
2019-05-05T02:10:06.023Z,3.80
2019-05-05T02:12:35.356Z,2.60
2019-05-05T02:15:04.378Z,3.30
2019-05-05T02:17:35.220Z,7.80
2019-05-05T02:20:05.273Z,4.45
2019-05-05T02:22:35.710Z,5.55
2019-05-05T02:25:04.817Z,6.17
2019-05-05T02:27:34.401Z,5.22
2019-05-05T02:30:06.197Z,4.57
2019-05-05T02:32:36.318Z,5.78
2019-05-05T02:37:36.138Z,5.72
2019-05-05T02:40:07.514Z,4.22
2019-05-05T02:42:37.558Z,6.87
2019-05-05T02:45:09.662Z,7.58
2019-05-05T02:47:39.965Z,7.10
2019-05-05T02:50:08.947Z,6.20
2019-05-05T02:52:38.372Z,7.25
2019-05-05T02:55:07.566Z,6.58
2019-05-05T02:57:36.459Z,6.83
2019-05-05T03:00:05.648Z,6.83
2019-05-05T03:02:35.279Z,5.57
2019-05-05T03:05:04.318Z,7.87
2019-05-05T03:07:36.990Z,5.25
2019-05-05T03:10:05.731Z,5.45
2019-05-05T03:15:04.639Z,8.50
2019-05-05T03:17:34.115Z,6.62
2019-05-05T03:20:05.912Z,5.78
2019-05-05T03:22:35.222Z,5.25
2019-05-05T03:25:04.608Z,9.53
2019-05-05T03:27:34.177Z,7.03
2019-05-05T03:30:05.058Z,7.28
2019-05-05T03:32:36.203Z,6.05
2019-05-05T03:35:05.114Z,6.62
2019-05-05T03:37:36.171Z,6.78
2019-05-05T03:40:08.796Z,7.15
2019-05-05T03:42:37.609Z,8.78
2019-05-05T03:45:07.107Z,11.03
2019-05-05T03:47:36.423Z,7.90
2019-05-05T03:50:07.052Z,7.53
2019-05-05T03:52:36.713Z,9.05
2019-05-05T03:55:07.419Z,7.30
2019-05-05T03:57:36.418Z,8.03
2019-05-05T04:00:05.169Z,7.17
2019-05-05T04:02:37.708Z,10.40
2019-05-05T04:05:06.984Z,11.13
2019-05-05T04:07:35.979Z,9.98
2019-05-05T04:10:05.373Z,8.60
2019-05-05T04:12:34.715Z,9.67
2019-05-05T04:15:03.733Z,8.58
2019-05-05T04:17:33.800Z,9.83
2019-05-05T04:20:03.844Z,9.40
2019-05-05T04:22:34.422Z,10.45
2019-05-05T04:25:04.617Z,8.23
2019-05-05T04:27:38.591Z,7.60
2019-05-05T04:30:08.564Z,12.15
2019-05-05T04:32:38.663Z,9.33
2019-05-05T04:35:10.552Z,7.42
2019-05-05T04:37:39.558Z,9.93
2019-05-05T04:40:08.437Z,7.53
2019-05-05T04:42:37.172Z,12.75
2019-05-05T04:45:06.518Z,10.40
2019-05-05T04:47:38.467Z,8.83
2019-05-05T04:50:07.583Z,9.00
2019-05-05T04:52:36.706Z,10.00
2019-05-05T04:55:06.651Z,8.90
2019-05-05T04:57:35.552Z,8.33
2019-05-05T05:00:05.898Z,8.97
2019-05-05T05:02:38.032Z,9.20
2019-05-05T05:05:07.169Z,8.25
2019-05-05T05:07:44.038Z,12.78
2019-05-05T05:10:13.860Z,8.93
2019-05-05T05:15:14.581Z,9.18
2019-05-05T05:17:44.987Z,10.70
2019-05-05T05:20:14.305Z,9.53
2019-05-05T05:22:46.131Z,10.28
2019-05-05T05:25:16.885Z,9.03
2019-05-05T05:27:45.839Z,9.10
2019-05-05T05:30:15.034Z,12.50
2019-05-05T05:32:44.662Z,10.13
2019-05-05T05:35:14.193Z,10.88
2019-05-05T05:37:44.790Z,10.28
2019-05-05T05:40:16.840Z,9.83
2019-05-05T05:42:48.515Z,10.28
2019-05-05T05:45:17.347Z,12.30
2019-05-05T05:47:46.080Z,10.63
2019-05-05T05:50:15.684Z,9.35
2019-05-05T05:52:44.520Z,12.63
2019-05-05T05:55:14.566Z,10.08
2019-05-05T05:57:43.871Z,12.30
2019-05-05T06:00:14.488Z,8.93
2019-05-05T06:02:44.002Z,9.60
2019-05-05T13:48:33.371Z,6.15
2019-05-05T13:51:04.275Z,5.87
2019-05-05T13:53:34.400Z,6.75
2019-05-05T13:56:11.489Z,4.47
2019-05-05T13:58:35.161Z,3.77
2019-05-05T14:01:04.095Z,2.98
2019-05-05T14:03:34.949Z,3.22
2019-05-05T14:06:06.938Z,4.10
2019-05-05T14:08:36.375Z,3.55
2019-05-05T14:11:06.039Z,3.22
2019-05-05T14:13:38.220Z,3.67
2019-05-05T14:16:07.387Z,6.03
2019-05-05T14:18:41.381Z,4.28
2019-05-05T14:21:10.669Z,3.40
2019-05-05T14:23:39.687Z,3.77
2019-05-05T14:26:21.612Z,7.62
2019-05-05T14:28:39.789Z,4.33
2019-05-05T14:31:10.304Z,3.47
2019-05-05T14:33:39.488Z,6.78
2019-05-05T14:36:09.806Z,5.00
2019-05-05T14:38:39.387Z,7.97
2019-05-05T14:41:10.088Z,6.35
2019-05-05T14:43:40.161Z,6.30
2019-05-05T14:46:16.329Z,4.62
2019-05-05T14:48:45.738Z,4.37
2019-05-05T14:51:15.537Z,4.42
2019-05-05T14:53:44.880Z,4.35
2019-05-05T14:56:14.828Z,8.25
2019-05-05T14:58:44.756Z,3.05
2019-05-05T15:01:15.007Z,8.38
2019-05-05T16:09:09.644Z,3.00
2019-05-05T16:11:39.343Z,2.72
2019-05-05T16:15:55.921Z,3.17
2019-05-05T16:18:25.381Z,2.20
2019-05-05T16:20:54.925Z,1.60
2019-05-05T16:23:24.110Z,2.45
2019-05-05T16:25:54.724Z,2.85
2019-05-05T16:28:25.125Z,3.33
2019-05-05T16:35:54.533Z,2.52
2019-05-05T16:38:26.786Z,4.10
2019-05-05T16:40:56.292Z,2.58
2019-05-05T16:43:25.599Z,3.25
2019-05-05T16:45:55.529Z,3.17
2019-05-05T16:48:25.858Z,3.62
2019-05-05T16:50:56.298Z,3.30
2019-05-05T16:53:25.912Z,3.15
2019-05-05T16:55:55.788Z,3.25
2019-05-05T16:58:25.239Z,3.72
2019-05-05T17:00:54.616Z,3.40
2019-05-05T17:03:23.947Z,2.62
2019-05-05T17:05:54.619Z,4.50
2019-05-05T17:08:25.131Z,3.55
2019-05-05T17:10:55.846Z,2.87
2019-05-05T17:13:26.324Z,3.77
2019-05-05T17:15:55.938Z,4.50
2019-05-05T17:18:32.885Z,4.20
2019-05-05T17:20:56.496Z,3.42
2019-05-05T17:23:25.908Z,4.63
2019-05-05T17:25:56.132Z,3.87
2019-05-05T17:28:26.022Z,3.45
2019-05-05T17:30:57.656Z,2.60
2019-05-05T17:33:27.662Z,2.77
2019-05-05T17:35:58.343Z,2.85
2019-05-05T17:38:27.653Z,3.62
2019-05-05T17:40:57.363Z,4.95
2019-05-05T17:43:27.842Z,3.35
2019-05-05T17:45:57.090Z,3.20
2019-05-05T17:48:25.785Z,2.90
2019-05-05T17:50:56.625Z,3.15
2019-05-05T17:53:25.892Z,4.83
2019-05-05T17:55:55.212Z,4.95
2019-05-05T17:58:27.363Z,4.80
2019-05-05T18:03:24.316Z,3.65
2019-05-05T18:05:59.806Z,3.95
2019-05-05T18:08:29.288Z,3.08
2019-05-05T18:10:58.936Z,3.70
2019-05-05T18:13:28.700Z,3.87
2019-05-05T18:15:57.929Z,4.03
2019-05-05T18:18:28.563Z,3.60
2019-05-05T18:20:58.896Z,3.80
2019-05-05T18:23:28.303Z,3.50
2019-05-05T18:25:57.491Z,4.67
2019-05-05T18:28:27.826Z,4.95
2019-05-05T18:30:56.912Z,5.00
2019-05-05T18:33:33.996Z,4.92
2019-05-05T18:36:04.413Z,3.67
2019-05-05T18:38:33.808Z,4.33
2019-05-05T18:41:03.699Z,4.63
2019-05-05T18:43:35.101Z,6.50
2019-05-05T18:46:07.365Z,5.22
2019-05-05T18:48:37.126Z,5.28
